Star Herdla — LAVD4 — position and weather

sailwx.info

Track history (hours):
 
Tides and Currents Weather Stations Pressure Air Temp Water Temp Dewpoint Dewpoint Depression Visibility Wind Speed Wind Dir Waves Ship Positions

Star Herdla

Last reported at 2016-Aug-25 14:28 UTC. Time now 2016-Aug-25 22:04 UTC.
Position N 29°44' W 095°14'.

Type: Cargo ship. MMSI: 258954000.

Date/timePositionNaut miles runAvg speedWind from/ knotsBaromVisibWave heightAir tempDewpointWater temp
2016-Aug-25 14:28N 29°44' W 095°14'5 5.1
2016-Aug-25 13:33N 29°44' W 095°09'6 6.1
2016-Aug-25 12:33N 29°44' W 095°02'10 9.7
2016-Aug-25 11:33N 29°35' W 094°56'  
2016-Aug-18 19:33N 25°56' W 079°30'1212.1
2016-Aug-18 18:33N 26°08' W 079°28'34911.2
2016-Aug-17 11:30N 31°52' W 080°35'1111.4
2016-Aug-17 10:33N 31°59' W 080°45'10 9.9
2016-Aug-17 09:33N 32°02' W 080°55'8 7.6
2016-Aug-17 08:33N 32°05' W 081°04'2 2.1
2016-Aug-17 07:33N 32°06' W 081°06'0 0.0
2016-Aug-17 06:18N 32°06' W 081°06'0 0.0
2016-Aug-17 05:30N 32°06' W 081°06'0 0.0
2016-Aug-17 04:30N 32°06' W 081°06'0 0.0
2016-Aug-17 03:30N 32°06' W 081°06'0 0.0
2016-Aug-17 02:30N 32°06' W 081°06'0 0.0
2016-Aug-17 01:30N 32°06' W 081°06'0 0.0
2016-Aug-17 00:30N 32°06' W 081°06'0 0.0
2016-Aug-16 23:30N 32°06' W 081°06'0 0.0
2016-Aug-16 22:30N 32°06' W 081°06'0 0.0
2016-Aug-16 21:30N 32°06' W 081°06'0 0.0
2016-Aug-16 20:30N 32°06' W 081°06'1 1.5
2016-Aug-16 19:33N 32°07' W 081°07'4 4.1
2016-Aug-16 18:33N 32°05' W 081°03'9 8.6
2016-Aug-16 17:33N 32°02' W 080°53'1010.4
2016-Aug-16 16:33N 31°58' W 080°42'  
Track history (hours):
 
Tides and Currents Weather Stations Pressure Air Temp Water Temp Dewpoint Dewpoint Depression Visibility Wind Speed Wind Dir Waves Ship Positions

Star Herdla

Last reported at 2016-Aug-25 14:28 UTC. Time now 2016-Aug-25 22:04 UTC.
Position N 29°44' W 095°14'.

Type: Cargo ship. MMSI: 258954000.

Date/timePositionNaut miles runAvg speedWind from/ knotsBaromVisibWave heightAir tempDewpointWater temp
2016-Aug-25 14:28N 29°44' W 095°14'5 5.1
2016-Aug-25 13:33N 29°44' W 095°09'6 6.1
2016-Aug-25 12:33N 29°44' W 095°02'10 9.7
2016-Aug-25 11:33N 29°35' W 094°56'  
2016-Aug-18 19:33N 25°56' W 079°30'1212.1
2016-Aug-18 18:33N 26°08' W 079°28'34911.2
2016-Aug-17 11:30N 31°52' W 080°35'1111.4
2016-Aug-17 10:33N 31°59' W 080°45'10 9.9
2016-Aug-17 09:33N 32°02' W 080°55'8 7.6
2016-Aug-17 08:33N 32°05' W 081°04'2 2.1
2016-Aug-17 07:33N 32°06' W 081°06'0 0.0
2016-Aug-17 06:18N 32°06' W 081°06'0 0.0
2016-Aug-17 05:30N 32°06' W 081°06'0 0.0
2016-Aug-17 04:30N 32°06' W 081°06'0 0.0
2016-Aug-17 03:30N 32°06' W 081°06'0 0.0
2016-Aug-17 02:30N 32°06' W 081°06'0 0.0
2016-Aug-17 01:30N 32°06' W 081°06'0 0.0
2016-Aug-17 00:30N 32°06' W 081°06'0 0.0
2016-Aug-16 23:30N 32°06' W 081°06'0 0.0
2016-Aug-16 22:30N 32°06' W 081°06'0 0.0
2016-Aug-16 21:30N 32°06' W 081°06'0 0.0
2016-Aug-16 20:30N 32°06' W 081°06'1 1.5
2016-Aug-16 19:33N 32°07' W 081°07'4 4.1
2016-Aug-16 18:33N 32°05' W 081°03'9 8.6
2016-Aug-16 17:33N 32°02' W 080°53'1010.4
2016-Aug-16 16:33N 31°58' W 080°42'  

Dump ship's entire track history